Seymour, Texas
Current Conditions -  °F | °C
As of 8:36 PM on Tuesday 21 Oct 2014 (Local Time) from KF05 Reporting Station
Clear Clear  
Wind Chill: 70°   Ceiling: Unl
Heat Index: 70°   Visibility: 10mi
Dew Point: 52°   Wind: 6mph
Humidity: 53%   Direction: 140°SE
Pressure: 30.04"   Gusts: NA
Location:  33.59°N, 99.26°W
Report Text: KF05 220136Z AUTO 14005KT 10SM CLR 21/11 A3004 RMK AO2
Loading
Personal Weather Stations






























Interactive Weather Map
Tropical Storm Tracking
New forecast layout! Learn more

10-Day Weather Forecast

Advertisements
Track Severe Weather on mobile